sensor_id;sensor_type;location;lat;lon;timestamp;temperature;humidity
65231;DHT22;51813;40.666;16.602;2023-07-13T00:00:13;26.90;59.40
65231;DHT22;51813;40.666;16.602;2023-07-13T00:02:42;27.00;59.50
65231;DHT22;51813;40.666;16.602;2023-07-13T00:05:08;27.00;59.90
65231;DHT22;51813;40.666;16.602;2023-07-13T00:07:35;27.00;59.20
65231;DHT22;51813;40.666;16.602;2023-07-13T00:10:02;27.00;59.10
65231;DHT22;51813;40.666;16.602;2023-07-13T00:12:34;27.00;59.50
65231;DHT22;51813;40.666;16.602;2023-07-13T00:15:06;27.00;59.80
65231;DHT22;51813;40.666;16.602;2023-07-13T00:17:32;27.00;59.60
65231;DHT22;51813;40.666;16.602;2023-07-13T00:19:58;27.00;59.80
65231;DHT22;51813;40.666;16.602;2023-07-13T00:22:24;27.10;60.00
65231;DHT22;51813;40.666;16.602;2023-07-13T00:24:54;27.10;59.50
65231;DHT22;51813;40.666;16.602;2023-07-13T00:27:22;27.00;59.70
65231;DHT22;51813;40.666;16.602;2023-07-13T00:29:48;27.00;59.60
65231;DHT22;51813;40.666;16.602;2023-07-13T00:32:13;27.00;59.40
65231;DHT22;51813;40.666;16.602;2023-07-13T00:34:39;27.00;59.70
65231;DHT22;51813;40.666;16.602;2023-07-13T00:37:06;27.00;59.80
65231;DHT22;51813;40.666;16.602;2023-07-13T00:39:33;27.00;59.80
65231;DHT22;51813;40.666;16.602;2023-07-13T00:42:00;27.00;59.80
65231;DHT22;51813;40.666;16.602;2023-07-13T00:44:26;27.00;59.90
65231;DHT22;51813;40.666;16.602;2023-07-13T00:46:52;27.00;59.60
65231;DHT22;51813;40.666;16.602;2023-07-13T00:49:22;27.10;59.80
65231;DHT22;51813;40.666;16.602;2023-07-13T00:51:49;27.00;59.90
65231;DHT22;51813;40.666;16.602;2023-07-13T00:54:20;27.00;59.70
65231;DHT22;51813;40.666;16.602;2023-07-13T00:56:50;27.00;59.90
65231;DHT22;51813;40.666;16.602;2023-07-13T00:59:18;27.00;59.90
65231;DHT22;51813;40.666;16.602;2023-07-13T01:01:45;27.00;59.90
65231;DHT22;51813;40.666;16.602;2023-07-13T01:04:11;27.00;60.00
65231;DHT22;51813;40.666;16.602;2023-07-13T01:06:37;27.00;60.20
65231;DHT22;51813;40.666;16.602;2023-07-13T01:09:07;27.00;60.00
65231;DHT22;51813;40.666;16.602;2023-07-13T01:11:33;27.00;60.00
65231;DHT22;51813;40.666;16.602;2023-07-13T01:14:00;27.00;60.00
65231;DHT22;51813;40.666;16.602;2023-07-13T01:16:32;27.00;60.10
65231;DHT22;51813;40.666;16.602;2023-07-13T01:18:58;27.00;60.30
65231;DHT22;51813;40.666;16.602;2023-07-13T01:21:26;27.00;59.90
65231;DHT22;51813;40.666;16.602;2023-07-13T01:23:51;27.00;60.10
65231;DHT22;51813;40.666;16.602;2023-07-13T01:26:17;27.00;59.90
65231;DHT22;51813;40.666;16.602;2023-07-13T01:28:44;26.90;60.20
65231;DHT22;51813;40.666;16.602;2023-07-13T01:31:10;26.90;60.00
65231;DHT22;51813;40.666;16.602;2023-07-13T01:33:37;26.90;60.00
65231;DHT22;51813;40.666;16.602;2023-07-13T01:36:09;26.90;60.30
65231;DHT22;51813;40.666;16.602;2023-07-13T01:38:35;26.90;60.20
65231;DHT22;51813;40.666;16.602;2023-07-13T01:41:01;26.90;60.10
65231;DHT22;51813;40.666;16.602;2023-07-13T01:43:27;26.90;60.30
65231;DHT22;51813;40.666;16.602;2023-07-13T01:45:53;26.90;60.20
65231;DHT22;51813;40.666;16.602;2023-07-13T01:48:19;26.90;60.30
65231;DHT22;51813;40.666;16.602;2023-07-13T01:50:45;26.90;60.50
65231;DHT22;51813;40.666;16.602;2023-07-13T01:53:11;26.90;60.40
65231;DHT22;51813;40.666;16.602;2023-07-13T01:55:37;26.90;60.40
65231;DHT22;51813;40.666;16.602;2023-07-13T01:58:04;26.90;60.30
65231;DHT22;51813;40.666;16.602;2023-07-13T02:00:30;26.90;60.50
65231;DHT22;51813;40.666;16.602;2023-07-13T02:02:56;26.90;59.80
65231;DHT22;51813;40.666;16.602;2023-07-13T02:05:21;26.90;60.10
65231;DHT22;51813;40.666;16.602;2023-07-13T02:07:47;26.90;60.50
65231;DHT22;51813;40.666;16.602;2023-07-13T02:10:13;26.90;60.30
65231;DHT22;51813;40.666;16.602;2023-07-13T02:12:39;26.90;60.40
65231;DHT22;51813;40.666;16.602;2023-07-13T02:15:06;26.90;59.90
65231;DHT22;51813;40.666;16.602;2023-07-13T02:17:32;26.90;60.20
65231;DHT22;51813;40.666;16.602;2023-07-13T02:19:57;26.90;60.10
65231;DHT22;51813;40.666;16.602;2023-07-13T02:22:23;26.90;60.10
65231;DHT22;51813;40.666;16.602;2023-07-13T02:24:49;26.90;60.20
65231;DHT22;51813;40.666;16.602;2023-07-13T02:27:15;26.90;60.20
65231;DHT22;51813;40.666;16.602;2023-07-13T02:29:41;26.80;60.30
65231;DHT22;51813;40.666;16.602;2023-07-13T02:32:07;26.80;60.30
65231;DHT22;51813;40.666;16.602;2023-07-13T02:34:33;26.80;60.10
65231;DHT22;51813;40.666;16.602;2023-07-13T02:36:59;26.80;59.90
65231;DHT22;51813;40.666;16.602;2023-07-13T02:39:25;26.80;60.80
65231;DHT22;51813;40.666;16.602;2023-07-13T02:41:50;26.80;60.10
65231;DHT22;51813;40.666;16.602;2023-07-13T02:44:16;26.80;59.90
65231;DHT22;51813;40.666;16.602;2023-07-13T02:46:42;26.80;60.20
65231;DHT22;51813;40.666;16.602;2023-07-13T02:49:08;26.80;60.20
65231;DHT22;51813;40.666;16.602;2023-07-13T02:51:33;26.80;60.40
65231;DHT22;51813;40.666;16.602;2023-07-13T02:54:04;26.80;60.40
65231;DHT22;51813;40.666;16.602;2023-07-13T02:56:31;26.80;60.60
65231;DHT22;51813;40.666;16.602;2023-07-13T02:58:57;26.80;60.30
65231;DHT22;51813;40.666;16.602;2023-07-13T03:01:23;26.80;60.40
65231;DHT22;51813;40.666;16.602;2023-07-13T03:03:50;26.80;60.50
65231;DHT22;51813;40.666;16.602;2023-07-13T03:06:17;26.80;60.50
65231;DHT22;51813;40.666;16.602;2023-07-13T03:08:44;26.80;60.60
65231;DHT22;51813;40.666;16.602;2023-07-13T03:11:20;26.80;60.80
65231;DHT22;51813;40.666;16.602;2023-07-13T03:13:46;26.80;60.60
65231;DHT22;51813;40.666;16.602;2023-07-13T03:16:12;26.80;61.40
65231;DHT22;51813;40.666;16.602;2023-07-13T03:18:39;26.80;61.00
65231;DHT22;51813;40.666;16.602;2023-07-13T03:21:05;26.80;60.40
65231;DHT22;51813;40.666;16.602;2023-07-13T03:23:31;26.80;60.60
65231;DHT22;51813;40.666;16.602;2023-07-13T03:28:28;26.80;60.70
65231;DHT22;51813;40.666;16.602;2023-07-13T03:31:06;26.80;60.80
65231;DHT22;51813;40.666;16.602;2023-07-13T03:33:32;26.80;60.80
65231;DHT22;51813;40.666;16.602;2023-07-13T03:35:58;26.70;60.70
65231;DHT22;51813;40.666;16.602;2023-07-13T03:38:24;26.80;60.80
65231;DHT22;51813;40.666;16.602;2023-07-13T03:40:50;26.70;60.80
65231;DHT22;51813;40.666;16.602;2023-07-13T03:43:16;26.70;60.80
65231;DHT22;51813;40.666;16.602;2023-07-13T03:45:41;26.70;61.20
65231;DHT22;51813;40.666;16.602;2023-07-13T03:48:07;26.60;61.40
65231;DHT22;51813;40.666;16.602;2023-07-13T03:50:33;26.60;61.60
65231;DHT22;51813;40.666;16.602;2023-07-13T03:53:00;26.70;61.30
65231;DHT22;51813;40.666;16.602;2023-07-13T03:55:26;26.70;61.40
65231;DHT22;51813;40.666;16.602;2023-07-13T03:57:57;26.70;61.20
65231;DHT22;51813;40.666;16.602;2023-07-13T04:00:24;26.70;60.90
65231;DHT22;51813;40.666;16.602;2023-07-13T04:02:50;26.70;61.10
65231;DHT22;51813;40.666;16.602;2023-07-13T04:05:16;26.70;60.90
65231;DHT22;51813;40.666;16.602;2023-07-13T04:07:41;26.60;61.30
65231;DHT22;51813;40.666;16.602;2023-07-13T04:10:08;26.70;61.40
65231;DHT22;51813;40.666;16.602;2023-07-13T04:12:34;26.70;61.00
65231;DHT22;51813;40.666;16.602;2023-07-13T04:14:59;26.70;61.30
65231;DHT22;51813;40.666;16.602;2023-07-13T04:17:25;26.70;61.10
65231;DHT22;51813;40.666;16.602;2023-07-13T04:19:51;26.70;61.40
65231;DHT22;51813;40.666;16.602;2023-07-13T04:22:16;26.70;61.00
65231;DHT22;51813;40.666;16.602;2023-07-13T04:24:42;26.70;61.30
65231;DHT22;51813;40.666;16.602;2023-07-13T04:27:07;26.70;61.00
65231;DHT22;51813;40.666;16.602;2023-07-13T04:29:33;26.70;61.10
65231;DHT22;51813;40.666;16.602;2023-07-13T04:31:59;26.70;60.90
65231;DHT22;51813;40.666;16.602;2023-07-13T04:34:25;26.70;61.10
65231;DHT22;51813;40.666;16.602;2023-07-13T04:36:50;26.80;61.00
65231;DHT22;51813;40.666;16.602;2023-07-13T04:39:16;26.70;61.10
65231;DHT22;51813;40.666;16.602;2023-07-13T04:41:42;26.70;61.00
65231;DHT22;51813;40.666;16.602;2023-07-13T04:44:08;26.80;61.20
65231;DHT22;51813;40.666;16.602;2023-07-13T04:46:33;26.70;61.20
65231;DHT22;51813;40.666;16.602;2023-07-13T04:48:59;26.70;61.00
65231;DHT22;51813;40.666;16.602;2023-07-13T04:51:25;26.70;61.10
65231;DHT22;51813;40.666;16.602;2023-07-13T04:53:51;26.70;61.30
65231;DHT22;51813;40.666;16.602;2023-07-13T04:56:17;26.60;61.40
65231;DHT22;51813;40.666;16.602;2023-07-13T04:58:43;26.70;61.20
65231;DHT22;51813;40.666;16.602;2023-07-13T05:01:09;26.60;61.30
65231;DHT22;51813;40.666;16.602;2023-07-13T05:03:35;26.70;61.10
65231;DHT22;51813;40.666;16.602;2023-07-13T05:06:04;26.70;61.00
65231;DHT22;51813;40.666;16.602;2023-07-13T05:08:30;26.70;60.90
65231;DHT22;51813;40.666;16.602;2023-07-13T05:10:56;26.70;61.10
65231;DHT22;51813;40.666;16.602;2023-07-13T05:13:22;26.70;60.60
65231;DHT22;51813;40.666;16.602;2023-07-13T05:16:03;26.70;61.00
65231;DHT22;51813;40.666;16.602;2023-07-13T05:18:30;26.70;60.70
65231;DHT22;51813;40.666;16.602;2023-07-13T05:21:06;26.70;60.50
65231;DHT22;51813;40.666;16.602;2023-07-13T05:23:33;26.70;60.50
65231;DHT22;51813;40.666;16.602;2023-07-13T05:25:59;26.80;60.60
65231;DHT22;51813;40.666;16.602;2023-07-13T05:28:26;26.80;60.90
65231;DHT22;51813;40.666;16.602;2023-07-13T05:30:53;26.70;60.90
65231;DHT22;51813;40.666;16.602;2023-07-13T05:33:20;26.70;60.40
65231;DHT22;51813;40.666;16.602;2023-07-13T05:35:46;26.70;60.40
65231;DHT22;51813;40.666;16.602;2023-07-13T05:38:12;26.80;60.40
65231;DHT22;51813;40.666;16.602;2023-07-13T05:40:38;26.70;60.40
65231;DHT22;51813;40.666;16.602;2023-07-13T05:43:03;26.70;60.40
65231;DHT22;51813;40.666;16.602;2023-07-13T05:45:29;26.70;60.40
65231;DHT22;51813;40.666;16.602;2023-07-13T05:47:55;26.70;60.00
65231;DHT22;51813;40.666;16.602;2023-07-13T05:50:20;26.70;60.60
65231;DHT22;51813;40.666;16.602;2023-07-13T05:52:46;26.70;59.40
65231;DHT22;51813;40.666;16.602;2023-07-13T05:55:12;26.70;59.50
65231;DHT22;51813;40.666;16.602;2023-07-13T05:57:38;26.70;60.10
65231;DHT22;51813;40.666;16.602;2023-07-13T06:00:04;26.80;60.20
65231;DHT22;51813;40.666;16.602;2023-07-13T06:02:30;26.80;59.30
65231;DHT22;51813;40.666;16.602;2023-07-13T06:04:56;26.70;59.10
65231;DHT22;51813;40.666;16.602;2023-07-13T06:07:21;26.70;59.90
65231;DHT22;51813;40.666;16.602;2023-07-13T06:09:47;26.80;59.10
65231;DHT22;51813;40.666;16.602;2023-07-13T06:12:13;26.70;59.90
65231;DHT22;51813;40.666;16.602;2023-07-13T06:14:38;26.70;60.20
65231;DHT22;51813;40.666;16.602;2023-07-13T06:17:04;26.70;59.50
65231;DHT22;51813;40.666;16.602;2023-07-13T06:19:30;26.70;59.70
65231;DHT22;51813;40.666;16.602;2023-07-13T06:21:56;26.70;59.50
65231;DHT22;51813;40.666;16.602;2023-07-13T06:24:24;26.70;58.90
65231;DHT22;51813;40.666;16.602;2023-07-13T06:26:49;26.80;57.70
65231;DHT22;51813;40.666;16.602;2023-07-13T06:29:15;26.70;58.80
65231;DHT22;51813;40.666;16.602;2023-07-13T06:31:41;26.70;59.20
65231;DHT22;51813;40.666;16.602;2023-07-13T06:34:07;26.70;57.80
65231;DHT22;51813;40.666;16.602;2023-07-13T06:36:32;26.80;58.00
65231;DHT22;51813;40.666;16.602;2023-07-13T06:38:58;26.80;59.10
65231;DHT22;51813;40.666;16.602;2023-07-13T06:41:23;26.70;58.40
65231;DHT22;51813;40.666;16.602;2023-07-13T06:43:52;26.70;59.20
65231;DHT22;51813;40.666;16.602;2023-07-13T06:46:18;26.70;58.80
65231;DHT22;51813;40.666;16.602;2023-07-13T06:48:43;26.70;59.50
65231;DHT22;51813;40.666;16.602;2023-07-13T06:51:09;26.70;58.20
65231;DHT22;51813;40.666;16.602;2023-07-13T06:53:35;26.80;58.50
65231;DHT22;51813;40.666;16.602;2023-07-13T06:56:00;26.70;58.90
65231;DHT22;51813;40.666;16.602;2023-07-13T06:58:26;26.70;59.90
65231;DHT22;51813;40.666;16.602;2023-07-13T07:00:52;26.70;60.10
65231;DHT22;51813;40.666;16.602;2023-07-13T07:03:18;26.70;60.20
65231;DHT22;51813;40.666;16.602;2023-07-13T07:05:43;26.70;59.80
65231;DHT22;51813;40.666;16.602;2023-07-13T07:08:09;26.70;59.80
65231;DHT22;51813;40.666;16.602;2023-07-13T07:10:35;26.70;59.40
65231;DHT22;51813;40.666;16.602;2023-07-13T07:13:02;26.70;60.10
65231;DHT22;51813;40.666;16.602;2023-07-13T07:15:28;26.70;60.10
65231;DHT22;51813;40.666;16.602;2023-07-13T07:17:54;26.70;60.20
65231;DHT22;51813;40.666;16.602;2023-07-13T07:20:20;26.70;60.20
65231;DHT22;51813;40.666;16.602;2023-07-13T07:22:46;26.70;60.30
65231;DHT22;51813;40.666;16.602;2023-07-13T07:25:12;26.70;60.60
65231;DHT22;51813;40.666;16.602;2023-07-13T07:27:38;26.70;60.10
65231;DHT22;51813;40.666;16.602;2023-07-13T07:30:04;26.70;60.10
65231;DHT22;51813;40.666;16.602;2023-07-13T07:32:31;26.70;60.30
65231;DHT22;51813;40.666;16.602;2023-07-13T07:34:59;26.70;60.20
65231;DHT22;51813;40.666;16.602;2023-07-13T07:37:25;26.70;60.30
65231;DHT22;51813;40.666;16.602;2023-07-13T07:39:50;26.70;60.30
65231;DHT22;51813;40.666;16.602;2023-07-13T07:42:16;26.70;60.40
65231;DHT22;51813;40.666;16.602;2023-07-13T07:44:42;26.70;60.50
65231;DHT22;51813;40.666;16.602;2023-07-13T07:47:08;26.70;60.70
65231;DHT22;51813;40.666;16.602;2023-07-13T07:49:35;26.70;60.40
65231;DHT22;51813;40.666;16.602;2023-07-13T07:52:01;26.70;60.40
65231;DHT22;51813;40.666;16.602;2023-07-13T07:54:26;26.70;60.40
65231;DHT22;51813;40.666;16.602;2023-07-13T07:56:52;26.70;61.10
65231;DHT22;51813;40.666;16.602;2023-07-13T07:59:19;26.70;60.40
65231;DHT22;51813;40.666;16.602;2023-07-13T08:01:44;26.70;60.40
65231;DHT22;51813;40.666;16.602;2023-07-13T08:04:12;26.70;60.40
65231;DHT22;51813;40.666;16.602;2023-07-13T08:06:37;26.70;60.40
65231;DHT22;51813;40.666;16.602;2023-07-13T08:09:03;26.70;60.50
65231;DHT22;51813;40.666;16.602;2023-07-13T08:11:30;26.70;60.50
65231;DHT22;51813;40.666;16.602;2023-07-13T08:13:56;26.70;60.40
65231;DHT22;51813;40.666;16.602;2023-07-13T08:16:22;26.70;60.40
65231;DHT22;51813;40.666;16.602;2023-07-13T08:18:47;26.70;60.40
65231;DHT22;51813;40.666;16.602;2023-07-13T08:21:13;26.70;60.40
65231;DHT22;51813;40.666;16.602;2023-07-13T08:23:39;26.70;60.40
65231;DHT22;51813;40.666;16.602;2023-07-13T08:26:04;26.70;60.40
65231;DHT22;51813;40.666;16.602;2023-07-13T08:28:31;26.70;60.40
65231;DHT22;51813;40.666;16.602;2023-07-13T08:31:02;26.70;60.70
65231;DHT22;51813;40.666;16.602;2023-07-13T08:33:28;26.70;60.30
65231;DHT22;51813;40.666;16.602;2023-07-13T08:35:54;26.80;60.00
65231;DHT22;51813;40.666;16.602;2023-07-13T08:38:20;26.80;60.00
65231;DHT22;51813;40.666;16.602;2023-07-13T08:40:54;26.80;59.90
65231;DHT22;51813;40.666;16.602;2023-07-13T08:43:27;26.70;59.90
65231;DHT22;51813;40.666;16.602;2023-07-13T08:46:02;26.70;59.90
65231;DHT22;51813;40.666;16.602;2023-07-13T08:48:53;26.70;60.40
65231;DHT22;51813;40.666;16.602;2023-07-13T08:51:33;26.80;60.30
65231;DHT22;51813;40.666;16.602;2023-07-13T08:56:29;26.70;61.30
65231;DHT22;51813;40.666;16.602;2023-07-13T08:59:14;26.80;61.10
65231;DHT22;51813;40.666;16.602;2023-07-13T09:04:48;26.80;61.60
65231;DHT22;51813;40.666;16.602;2023-07-13T09:10:53;26.80;61.70
65231;DHT22;51813;40.666;16.602;2023-07-13T09:13:34;26.90;61.40
65231;DHT22;51813;40.666;16.602;2023-07-13T09:16:03;26.90;59.60
65231;DHT22;51813;40.666;16.602;2023-07-13T09:18:36;26.90;60.50
65231;DHT22;51813;40.666;16.602;2023-07-13T09:21:07;26.90;60.00
65231;DHT22;51813;40.666;16.602;2023-07-13T09:23:35;27.00;58.50
65231;DHT22;51813;40.666;16.602;2023-07-13T09:26:14;27.00;57.60
65231;DHT22;51813;40.666;16.602;2023-07-13T09:28:43;27.10;56.30
65231;DHT22;51813;40.666;16.602;2023-07-13T09:31:17;27.10;54.00
65231;DHT22;51813;40.666;16.602;2023-07-13T09:33:44;27.10;56.00
65231;DHT22;51813;40.666;16.602;2023-07-13T09:36:27;27.10;56.80
65231;DHT22;51813;40.666;16.602;2023-07-13T09:46:56;27.00;58.30
65231;DHT22;51813;40.666;16.602;2023-07-13T09:49:33;27.00;58.10
65231;DHT22;51813;40.666;16.602;2023-07-13T09:52:06;27.00;58.50
65231;DHT22;51813;40.666;16.602;2023-07-13T09:54:36;27.00;58.20
65231;DHT22;51813;40.666;16.602;2023-07-13T09:57:03;27.00;59.10
65231;DHT22;51813;40.666;16.602;2023-07-13T09:59:33;27.00;57.70
65231;DHT22;51813;40.666;16.602;2023-07-13T10:01:59;27.10;54.30
65231;DHT22;51813;40.666;16.602;2023-07-13T10:04:31;27.20;53.70
65231;DHT22;51813;40.666;16.602;2023-07-13T10:07:08;27.30;52.80
65231;DHT22;51813;40.666;16.602;2023-07-13T10:09:34;27.30;52.10
65231;DHT22;51813;40.666;16.602;2023-07-13T10:12:00;27.40;50.50
65231;DHT22;51813;40.666;16.602;2023-07-13T10:14:29;27.40;53.00
65231;DHT22;51813;40.666;16.602;2023-07-13T10:17:02;27.40;54.70
65231;DHT22;51813;40.666;16.602;2023-07-13T10:19:32;27.30;53.80
65231;DHT22;51813;40.666;16.602;2023-07-13T10:24:47;27.40;49.70
65231;DHT22;51813;40.666;16.602;2023-07-13T10:27:15;27.50;50.30
65231;DHT22;51813;40.666;16.602;2023-07-13T10:32:22;27.60;48.70
65231;DHT22;51813;40.666;16.602;2023-07-13T10:34:50;27.60;48.70
65231;DHT22;51813;40.666;16.602;2023-07-13T10:37:27;27.70;48.60
65231;DHT22;51813;40.666;16.602;2023-07-13T10:39:56;27.70;48.10
65231;DHT22;51813;40.666;16.602;2023-07-13T10:42:43;27.70;47.10
65231;DHT22;51813;40.666;16.602;2023-07-13T10:45:19;27.80;48.10
65231;DHT22;51813;40.666;16.602;2023-07-13T10:47:45;27.90;47.70
65231;DHT22;51813;40.666;16.602;2023-07-13T10:50:28;27.90;46.70
65231;DHT22;51813;40.666;16.602;2023-07-13T10:53:17;27.90;45.40
65231;DHT22;51813;40.666;16.602;2023-07-13T11:03:34;28.00;45.90
65231;DHT22;51813;40.666;16.602;2023-07-13T11:08:53;28.10;45.10
65231;DHT22;51813;40.666;16.602;2023-07-13T11:18:47;28.10;45.30
65231;DHT22;51813;40.666;16.602;2023-07-13T11:21:25;28.20;46.50
65231;DHT22;51813;40.666;16.602;2023-07-13T11:24:00;28.20;46.20
65231;DHT22;51813;40.666;16.602;2023-07-13T11:31:41;28.30;47.80
65231;DHT22;51813;40.666;16.602;2023-07-13T11:34:13;28.30;48.50
65231;DHT22;51813;40.666;16.602;2023-07-13T11:36:44;28.20;48.20
65231;DHT22;51813;40.666;16.602;2023-07-13T11:39:18;28.20;49.60
65231;DHT22;51813;40.666;16.602;2023-07-13T11:42:06;28.10;50.60
65231;DHT22;51813;40.666;16.602;2023-07-13T11:44:34;28.00;51.00
65231;DHT22;51813;40.666;16.602;2023-07-13T11:47:10;27.90;51.70
65231;DHT22;51813;40.666;16.602;2023-07-13T11:49:49;27.80;52.20
65231;DHT22;51813;40.666;16.602;2023-07-13T11:52:18;27.70;52.30
65231;DHT22;51813;40.666;16.602;2023-07-13T11:54:55;27.70;52.50
65231;DHT22;51813;40.666;16.602;2023-07-13T11:57:32;27.70;53.00
65231;DHT22;51813;40.666;16.602;2023-07-13T12:00:03;27.60;53.00
65231;DHT22;51813;40.666;16.602;2023-07-13T12:02:42;27.60;53.20
65231;DHT22;51813;40.666;16.602;2023-07-13T12:05:12;27.60;53.90
65231;DHT22;51813;40.666;16.602;2023-07-13T12:07:38;27.60;53.90
65231;DHT22;51813;40.666;16.602;2023-07-13T12:10:25;27.60;53.50
65231;DHT22;51813;40.666;16.602;2023-07-13T12:15:21;27.60;53.40
65231;DHT22;51813;40.666;16.602;2023-07-13T12:17:48;27.60;53.70
65231;DHT22;51813;40.666;16.602;2023-07-13T12:20:29;27.70;53.20
65231;DHT22;51813;40.666;16.602;2023-07-13T12:22:58;27.80;53.20
65231;DHT22;51813;40.666;16.602;2023-07-13T12:25:25;27.90;53.10
65231;DHT22;51813;40.666;16.602;2023-07-13T12:27:51;28.00;52.80
65231;DHT22;51813;40.666;16.602;2023-07-13T12:30:31;28.10;52.60
65231;DHT22;51813;40.666;16.602;2023-07-13T12:33:11;28.30;52.30
65231;DHT22;51813;40.666;16.602;2023-07-13T12:35:47;28.40;52.00
65231;DHT22;51813;40.666;16.602;2023-07-13T12:38:13;28.50;51.80
65231;DHT22;51813;40.666;16.602;2023-07-13T12:40:40;28.70;51.70
65231;DHT22;51813;40.666;16.602;2023-07-13T12:43:11;28.80;51.60
65231;DHT22;51813;40.666;16.602;2023-07-13T12:45:38;28.90;51.50
65231;DHT22;51813;40.666;16.602;2023-07-13T12:48:10;29.00;51.10
65231;DHT22;51813;40.666;16.602;2023-07-13T12:50:41;29.00;50.90
65231;DHT22;51813;40.666;16.602;2023-07-13T12:53:13;29.10;51.00
65231;DHT22;51813;40.666;16.602;2023-07-13T12:55:48;29.20;50.90
65231;DHT22;51813;40.666;16.602;2023-07-13T12:58:25;29.30;50.80
65231;DHT22;51813;40.666;16.602;2023-07-13T13:00:54;29.30;50.70
65231;DHT22;51813;40.666;16.602;2023-07-13T13:03:40;29.30;50.70
65231;DHT22;51813;40.666;16.602;2023-07-13T13:06:21;29.40;50.60
65231;DHT22;51813;40.666;16.602;2023-07-13T13:08:54;29.40;50.50
65231;DHT22;51813;40.666;16.602;2023-07-13T13:11:22;29.50;50.60
65231;DHT22;51813;40.666;16.602;2023-07-13T13:13:49;29.50;50.40
65231;DHT22;51813;40.666;16.602;2023-07-13T13:18:49;29.70;50.30
65231;DHT22;51813;40.666;16.602;2023-07-13T13:21:16;29.70;50.40
65231;DHT22;51813;40.666;16.602;2023-07-13T13:23:42;29.60;51.10
65231;DHT22;51813;40.666;16.602;2023-07-13T13:26:11;29.70;50.20
65231;DHT22;51813;40.666;16.602;2023-07-13T13:28:38;29.70;50.50
65231;DHT22;51813;40.666;16.602;2023-07-13T13:31:03;29.70;50.40
65231;DHT22;51813;40.666;16.602;2023-07-13T13:33:29;29.60;50.30
65231;DHT22;51813;40.666;16.602;2023-07-13T13:35:56;29.70;50.60
65231;DHT22;51813;40.666;16.602;2023-07-13T13:38:27;29.60;50.70
65231;DHT22;51813;40.666;16.602;2023-07-13T13:40:52;29.70;51.00
65231;DHT22;51813;40.666;16.602;2023-07-13T13:43:22;29.80;50.60
65231;DHT22;51813;40.666;16.602;2023-07-13T13:45:52;29.70;50.70
65231;DHT22;51813;40.666;16.602;2023-07-13T13:48:23;29.60;50.70
65231;DHT22;51813;40.666;16.602;2023-07-13T13:50:56;29.60;50.80
65231;DHT22;51813;40.666;16.602;2023-07-13T13:53:22;29.60;51.10
65231;DHT22;51813;40.666;16.602;2023-07-13T13:55:52;29.70;51.50
65231;DHT22;51813;40.666;16.602;2023-07-13T13:58:18;30.10;50.50
65231;DHT22;51813;40.666;16.602;2023-07-13T14:00:45;30.60;50.10
65231;DHT22;51813;40.666;16.602;2023-07-13T14:03:19;30.70;49.10
65231;DHT22;51813;40.666;16.602;2023-07-13T14:05:45;30.50;49.40
65231;DHT22;51813;40.666;16.602;2023-07-13T14:08:19;30.30;49.90
65231;DHT22;51813;40.666;16.602;2023-07-13T14:10:51;30.20;50.20
65231;DHT22;51813;40.666;16.602;2023-07-13T14:13:24;30.10;50.30
65231;DHT22;51813;40.666;16.602;2023-07-13T14:15:53;30.10;50.20
65231;DHT22;51813;40.666;16.602;2023-07-13T14:18:18;30.10;51.10
65231;DHT22;51813;40.666;16.602;2023-07-13T14:20:45;30.40;50.30
65231;DHT22;51813;40.666;16.602;2023-07-13T14:23:13;30.50;51.20
65231;DHT22;51813;40.666;16.602;2023-07-13T14:25:39;30.30;50.30
65231;DHT22;51813;40.666;16.602;2023-07-13T14:30:47;30.00;49.20
65231;DHT22;51813;40.666;16.602;2023-07-13T14:33:14;30.00;50.20
65231;DHT22;51813;40.666;16.602;2023-07-13T14:35:39;29.90;50.60
65231;DHT22;51813;40.666;16.602;2023-07-13T14:38:10;29.90;50.50
65231;DHT22;51813;40.666;16.602;2023-07-13T14:40:37;29.90;50.60
65231;DHT22;51813;40.666;16.602;2023-07-13T14:43:03;29.90;50.80
65231;DHT22;51813;40.666;16.602;2023-07-13T14:45:30;29.80;51.00
65231;DHT22;51813;40.666;16.602;2023-07-13T14:47:56;29.80;51.20
65231;DHT22;51813;40.666;16.602;2023-07-13T14:50:30;29.80;51.30
65231;DHT22;51813;40.666;16.602;2023-07-13T14:52:57;29.80;51.30
65231;DHT22;51813;40.666;16.602;2023-07-13T14:55:23;29.80;51.40
65231;DHT22;51813;40.666;16.602;2023-07-13T14:57:52;29.80;51.40
65231;DHT22;51813;40.666;16.602;2023-07-13T15:00:22;29.80;51.30
65231;DHT22;51813;40.666;16.602;2023-07-13T15:02:52;29.80;51.20
65231;DHT22;51813;40.666;16.602;2023-07-13T15:05:27;29.90;51.20
65231;DHT22;51813;40.666;16.602;2023-07-13T15:07:57;29.80;51.30
65231;DHT22;51813;40.666;16.602;2023-07-13T15:10:29;29.90;51.40
65231;DHT22;51813;40.666;16.602;2023-07-13T15:13:15;29.80;51.50
65231;DHT22;51813;40.666;16.602;2023-07-13T15:15:44;29.80;51.50
65231;DHT22;51813;40.666;16.602;2023-07-13T15:18:12;29.80;51.60
65231;DHT22;51813;40.666;16.602;2023-07-13T15:20:39;29.80;51.70
65231;DHT22;51813;40.666;16.602;2023-07-13T15:23:05;29.80;52.30
65231;DHT22;51813;40.666;16.602;2023-07-13T15:25:32;29.90;52.90
65231;DHT22;51813;40.666;16.602;2023-07-13T15:27:59;30.00;51.60
65231;DHT22;51813;40.666;16.602;2023-07-13T15:30:28;29.90;51.50
65231;DHT22;51813;40.666;16.602;2023-07-13T15:32:56;29.90;51.60
65231;DHT22;51813;40.666;16.602;2023-07-13T15:35:26;29.90;51.60
65231;DHT22;51813;40.666;16.602;2023-07-13T15:37:52;29.90;51.80
65231;DHT22;51813;40.666;16.602;2023-07-13T15:40:19;29.80;51.80
65231;DHT22;51813;40.666;16.602;2023-07-13T15:42:47;29.80;51.90
65231;DHT22;51813;40.666;16.602;2023-07-13T15:47:45;29.70;52.00
65231;DHT22;51813;40.666;16.602;2023-07-13T15:50:17;29.70;52.20
65231;DHT22;51813;40.666;16.602;2023-07-13T15:52:45;29.50;52.30
65231;DHT22;51813;40.666;16.602;2023-07-13T15:55:13;29.50;53.10
65231;DHT22;51813;40.666;16.602;2023-07-13T15:57:43;29.60;53.20
65231;DHT22;51813;40.666;16.602;2023-07-13T16:00:28;29.60;53.10
65231;DHT22;51813;40.666;16.602;2023-07-13T16:02:54;29.50;53.70
65231;DHT22;51813;40.666;16.602;2023-07-13T16:05:21;29.50;53.80
65231;DHT22;51813;40.666;16.602;2023-07-13T16:07:49;29.50;53.70
65231;DHT22;51813;40.666;16.602;2023-07-13T16:10:22;29.50;55.00
65231;DHT22;51813;40.666;16.602;2023-07-13T16:12:49;29.90;52.60
65231;DHT22;51813;40.666;16.602;2023-07-13T16:15:18;30.30;51.70
65231;DHT22;51813;40.666;16.602;2023-07-13T16:17:45;30.20;52.10
65231;DHT22;51813;40.666;16.602;2023-07-13T16:20:12;30.00;52.70